createdAt,value
2018-12-06T00:00:55.017Z,12.20
2018-12-06T00:05:59.910Z,12.30
2018-12-06T00:11:05.858Z,14.03
2018-12-06T00:16:10.815Z,14.28
2018-12-06T00:21:15.964Z,14.40
2018-12-06T00:26:20.792Z,17.00
2018-12-06T00:31:25.648Z,16.20
2018-12-06T00:36:30.467Z,16.40
2018-12-06T00:41:35.358Z,17.33
2018-12-06T00:46:40.668Z,18.23
2018-12-06T00:51:45.983Z,18.30
2018-12-06T00:56:52.213Z,18.07
2018-12-06T01:01:57.099Z,17.47
2018-12-06T01:07:02.165Z,18.93
2018-12-06T01:12:07.038Z,18.73
2018-12-06T01:17:12.374Z,20.07
2018-12-06T01:22:17.167Z,20.23
2018-12-06T01:27:22.493Z,20.43
2018-12-06T01:32:27.394Z,20.93
2018-12-06T01:37:32.378Z,21.50
2018-12-06T01:42:37.295Z,22.03
2018-12-06T01:47:42.174Z,21.97
2018-12-06T01:52:47.017Z,22.33
2018-12-06T01:57:51.885Z,23.10
2018-12-06T02:02:56.885Z,22.67
2018-12-06T02:08:01.680Z,23.80
2018-12-06T02:13:06.563Z,22.67
2018-12-06T02:18:11.464Z,24.10
2018-12-06T02:23:16.349Z,24.20
2018-12-06T02:28:21.471Z,26.53
2018-12-06T02:33:26.319Z,26.83
2018-12-06T02:38:31.274Z,29.53
2018-12-06T02:43:36.495Z,27.67
2018-12-06T02:48:41.320Z,30.10
2018-12-06T02:53:46.282Z,28.80
2018-12-06T02:58:51.273Z,29.70
2018-12-06T03:03:56.061Z,29.83
2018-12-06T03:09:01.253Z,29.00
2018-12-06T03:14:07.322Z,28.97
2018-12-06T03:19:12.159Z,28.37
2018-12-06T03:24:17.085Z,29.33
2018-12-06T03:29:22.099Z,27.33
2018-12-06T03:34:27.058Z,26.53
2018-12-06T03:39:32.507Z,28.13
2018-12-06T03:44:37.464Z,29.93
2018-12-06T03:49:43.231Z,30.40
2018-12-06T03:54:48.708Z,32.20
2018-12-06T03:59:53.996Z,31.30
2018-12-06T04:04:58.854Z,32.87
2018-12-06T04:10:04.200Z,30.73
2018-12-06T04:15:09.332Z,30.43
2018-12-06T04:20:14.534Z,30.17
2018-12-06T04:25:19.345Z,30.77
2018-12-06T04:30:24.265Z,30.00
2018-12-06T04:35:29.081Z,30.37
2018-12-06T04:40:33.918Z,29.60
2018-12-06T04:45:38.782Z,31.83
2018-12-06T04:50:43.692Z,31.37
2018-12-06T04:55:48.536Z,29.63
2018-12-06T05:00:53.433Z,30.37
2018-12-06T05:05:58.457Z,29.10
2018-12-06T05:11:04.364Z,29.87
2018-12-06T05:16:09.208Z,29.40
2018-12-06T05:21:14.084Z,30.43
2018-12-06T05:26:19.212Z,28.47
2018-12-06T05:31:24.001Z,26.37
2018-12-06T05:36:29.102Z,26.67
2018-12-06T05:41:33.983Z,25.60
2018-12-06T05:46:38.833Z,24.83
2018-12-06T05:51:43.911Z,25.10
2018-12-06T05:56:48.842Z,23.00
2018-12-06T06:01:53.634Z,22.53
2018-12-06T06:07:01.830Z,22.87
2018-12-06T06:12:06.686Z,21.87
2018-12-06T06:17:11.867Z,21.73
2018-12-06T06:22:16.832Z,21.57
2018-12-06T06:27:21.642Z,20.67
2018-12-06T06:32:26.484Z,20.30
2018-12-06T06:37:31.291Z,19.53
2018-12-06T06:42:36.206Z,19.15
2018-12-06T06:48:16.355Z,18.93
2018-12-06T06:53:21.110Z,17.43
2018-12-06T06:58:26.053Z,16.23
2018-12-06T07:03:30.856Z,14.53
2018-12-06T07:08:35.691Z,14.85
2018-12-06T07:13:40.500Z,13.33
2018-12-06T07:18:45.331Z,11.97
2018-12-06T07:23:50.126Z,10.30
2018-12-06T07:28:55.024Z,8.77
2018-12-06T07:33:59.965Z,8.00
2018-12-06T07:39:07.550Z,7.13
2018-12-06T07:44:12.360Z,7.20
2018-12-06T07:49:17.319Z,6.80
2018-12-06T07:54:22.222Z,6.17
2018-12-06T07:59:27.138Z,5.60
2018-12-06T08:04:31.959Z,5.67
2018-12-06T08:09:36.778Z,5.17
2018-12-06T08:14:42.268Z,6.00
2018-12-06T08:19:47.149Z,4.93
2018-12-06T08:24:52.048Z,4.47
2018-12-06T08:29:57.101Z,5.20
2018-12-06T08:35:01.924Z,4.93
2018-12-06T08:40:07.643Z,5.37
2018-12-06T08:45:12.557Z,5.67
2018-12-06T08:50:17.823Z,6.67
2018-12-06T08:55:22.674Z,6.77
2018-12-06T09:00:27.580Z,6.03
2018-12-06T09:05:32.857Z,5.27
2018-12-06T09:10:37.658Z,5.60
2018-12-06T09:15:42.555Z,4.97
2018-12-06T09:20:47.426Z,4.90
2018-12-06T09:31:04.728Z,4.50
2018-12-06T09:36:09.742Z,4.00
2018-12-06T09:41:14.586Z,5.00
2018-12-06T09:46:19.466Z,5.30
2018-12-06T09:51:24.295Z,5.07
2018-12-06T09:56:29.424Z,5.67
2018-12-06T10:01:34.388Z,6.50
2018-12-06T10:06:39.186Z,6.33
2018-12-06T10:11:44.074Z,7.00
2018-12-06T10:16:49.221Z,6.50
2018-12-06T10:21:54.071Z,7.13
2018-12-06T10:26:58.878Z,7.27
2018-12-06T10:32:03.815Z,6.93
2018-12-06T10:37:08.782Z,6.87
2018-12-06T10:42:13.696Z,7.73
2018-12-06T10:47:18.615Z,7.67
2018-12-06T10:52:23.527Z,8.17
2018-12-06T10:57:28.468Z,7.97
2018-12-06T11:02:38.611Z,7.80
2018-12-06T11:07:44.669Z,7.50
2018-12-06T11:12:49.515Z,6.57
2018-12-06T11:17:54.382Z,6.43
2018-12-06T11:22:59.271Z,6.67
2018-12-06T11:28:04.148Z,6.67
2018-12-06T11:33:09.292Z,6.40
2018-12-06T11:38:14.238Z,6.10
2018-12-06T11:43:19.474Z,6.20
2018-12-06T11:48:27.092Z,4.83
2018-12-06T11:53:32.146Z,5.67
2018-12-06T11:58:37.126Z,5.17
2018-12-06T12:03:42.139Z,5.70
2018-12-06T12:08:46.932Z,6.07
2018-12-06T12:13:51.973Z,5.57
2018-12-06T12:18:56.845Z,5.47
2018-12-06T12:24:01.628Z,6.07
2018-12-06T12:29:06.580Z,6.40
2018-12-06T12:34:11.359Z,6.17
2018-12-06T12:39:16.206Z,6.73
2018-12-06T12:44:21.098Z,6.27
2018-12-06T12:49:25.877Z,7.37
2018-12-06T12:54:31.186Z,7.13
2018-12-06T12:59:35.910Z,6.77
2018-12-06T13:04:40.794Z,7.00
2018-12-06T13:09:45.595Z,7.07
2018-12-06T13:14:50.467Z,7.80
2018-12-06T13:19:55.400Z,7.10
2018-12-06T13:25:00.430Z,7.10
2018-12-06T13:30:06.014Z,7.30
2018-12-06T13:35:11.263Z,7.27
2018-12-06T13:40:16.172Z,8.17
2018-12-06T13:45:21.127Z,8.03
2018-12-06T13:50:26.195Z,8.47
2018-12-06T13:55:30.996Z,9.10
2018-12-06T14:00:36.930Z,8.43
2018-12-06T14:05:42.114Z,7.83
2018-12-06T14:10:46.969Z,7.57
2018-12-06T14:15:51.759Z,6.57
2018-12-06T14:20:56.522Z,6.67
2018-12-06T14:26:01.266Z,6.67
2018-12-06T14:31:06.054Z,7.90
2018-12-06T14:36:10.936Z,8.43
2018-12-06T14:41:15.725Z,10.00
2018-12-06T14:46:20.537Z,12.37
2018-12-06T14:51:25.607Z,12.87
2018-12-06T14:56:30.467Z,13.13
2018-12-06T15:01:35.490Z,13.23
2018-12-06T15:06:40.724Z,11.43
2018-12-06T15:11:45.581Z,10.17
2018-12-06T15:16:50.409Z,8.53
2018-12-06T15:21:55.180Z,9.30
2018-12-06T15:27:00.121Z,10.53
2018-12-06T15:32:04.868Z,10.90
2018-12-06T15:37:09.626Z,11.53
2018-12-06T15:42:14.427Z,11.37
2018-12-06T15:47:19.220Z,12.40
2018-12-06T15:52:24.013Z,13.13
2018-12-06T15:57:28.956Z,11.97
2018-12-06T16:02:33.729Z,13.37
2018-12-06T16:07:39.047Z,12.57
2018-12-06T16:12:43.874Z,10.13
2018-12-06T16:17:48.732Z,9.20
2018-12-06T16:22:54.622Z,7.70
2018-12-06T16:27:59.775Z,7.63
2018-12-06T16:33:04.513Z,6.80
2018-12-06T16:38:09.277Z,6.67
2018-12-06T16:43:14.040Z,7.43
2018-12-06T16:48:18.860Z,9.50
2018-12-06T16:53:23.638Z,10.60
2018-12-06T16:58:28.455Z,11.93
2018-12-06T17:03:33.271Z,11.53
2018-12-06T17:08:38.043Z,11.40
2018-12-06T17:13:42.856Z,11.83
2018-12-06T17:18:47.645Z,12.60
2018-12-06T17:23:52.406Z,12.00
2018-12-06T17:28:57.301Z,11.80
2018-12-06T17:34:02.200Z,9.57
2018-12-06T17:39:08.202Z,9.77
2018-12-06T17:44:13.544Z,9.63
2018-12-06T17:49:18.404Z,10.00
2018-12-06T17:54:23.337Z,10.53
2018-12-06T17:59:29.375Z,12.73
2018-12-06T18:04:34.195Z,12.20
2018-12-06T18:09:38.973Z,12.00
2018-12-06T18:14:43.824Z,11.67
2018-12-06T18:19:48.616Z,11.53
2018-12-06T18:24:53.406Z,8.90
2018-12-06T18:29:58.382Z,7.77
2018-12-06T18:35:03.551Z,6.07
2018-12-06T18:40:08.462Z,4.80
2018-12-06T18:45:13.518Z,4.13
2018-12-06T18:50:18.421Z,3.53
2018-12-06T18:55:23.156Z,1.23
2018-12-06T19:00:28.275Z,3.57
2018-12-06T19:05:33.381Z,1.77
2018-12-06T19:10:38.270Z,2.20
2018-12-06T19:15:43.069Z,1.90
2018-12-06T19:20:47.990Z,1.87
2018-12-06T19:25:52.890Z,2.47
2018-12-06T19:30:58.192Z,2.80
2018-12-06T19:36:03.096Z,2.60
2018-12-06T19:41:07.863Z,3.57
2018-12-06T19:46:12.636Z,3.30
2018-12-06T19:51:17.475Z,3.80
2018-12-06T19:56:22.312Z,3.80
2018-12-06T20:01:27.326Z,3.87
2018-12-06T20:06:32.456Z,3.67
2018-12-06T20:11:37.413Z,4.03
2018-12-06T20:16:42.422Z,4.10
2018-12-06T20:21:47.266Z,4.97
2018-12-06T20:26:52.207Z,5.78
2018-12-06T20:31:57.101Z,5.00
2018-12-06T20:37:02.072Z,4.37
2018-12-06T20:42:06.937Z,4.13
2018-12-06T20:47:15.997Z,4.97
2018-12-06T20:52:20.829Z,4.90
2018-12-06T20:57:25.594Z,5.03
2018-12-06T21:02:30.552Z,4.47
2018-12-06T21:07:35.340Z,4.53
2018-12-06T21:12:40.075Z,5.40
2018-12-06T21:17:44.863Z,4.75
2018-12-06T21:22:49.692Z,5.00
2018-12-06T21:27:54.560Z,4.80
2018-12-06T21:32:59.363Z,4.80
2018-12-06T21:38:04.311Z,4.50
2018-12-06T21:43:09.122Z,5.87
2018-12-06T21:48:14.095Z,5.83
2018-12-06T21:53:18.995Z,6.90
2018-12-06T21:58:23.737Z,6.50
2018-12-06T22:03:28.706Z,7.03
2018-12-06T22:08:33.562Z,7.87
2018-12-06T22:13:38.405Z,8.97
2018-12-06T22:18:43.168Z,8.07
2018-12-06T22:23:48.082Z,8.33
2018-12-06T22:28:52.884Z,7.57
2018-12-06T22:33:57.769Z,8.13
2018-12-06T22:39:02.790Z,7.70
2018-12-06T22:44:07.537Z,8.13
2018-12-06T22:49:12.448Z,7.23
2018-12-06T22:54:17.221Z,7.33
2018-12-06T22:59:22.298Z,7.40
2018-12-06T23:04:27.331Z,7.00
2018-12-06T23:09:32.156Z,6.73
2018-12-06T23:14:37.162Z,7.57
2018-12-06T23:19:41.974Z,6.83
2018-12-06T23:24:46.836Z,7.03
2018-12-06T23:29:51.607Z,8.07
2018-12-06T23:34:56.405Z,6.90
2018-12-06T23:40:01.144Z,6.63
2018-12-06T23:45:06.848Z,7.07
2018-12-06T23:50:12.191Z,6.73
2018-12-06T23:55:17.045Z,8.17
